sensor_id;sensor_type;location;lat;lon;timestamp;pressure;altitude;pressure_sealevel;temperature;humidity
65666;BME280;52365;47.464;18.976;2023-04-09T00:00:32;100440.91;;;6.24;75.84
65666;BME280;52365;47.464;18.976;2023-04-09T00:01:10;100438.75;;;6.39;75.62
65666;BME280;52365;47.464;18.976;2023-04-09T00:01:46;100441.59;;;6.52;75.19
65666;BME280;52365;47.464;18.976;2023-04-09T00:02:22;100440.25;;;6.40;74.88
65666;BME280;52365;47.464;18.976;2023-04-09T00:02:58;100441.47;;;6.36;75.00
65666;BME280;52365;47.464;18.976;2023-04-09T00:03:34;100435.72;;;6.37;75.01
65666;BME280;52365;47.464;18.976;2023-04-09T00:04:11;100439.63;;;6.33;75.02
65666;BME280;52365;47.464;18.976;2023-04-09T00:04:47;100439.38;;;6.47;74.91
65666;BME280;52365;47.464;18.976;2023-04-09T00:05:23;100447.66;;;6.33;74.84
65666;BME280;52365;47.464;18.976;2023-04-09T00:05:59;100451.56;;;6.28;75.07
65666;BME280;52365;47.464;18.976;2023-04-09T00:06:35;100452.06;;;6.19;75.30
65666;BME280;52365;47.464;18.976;2023-04-09T00:07:11;100442.44;;;6.22;75.40
65666;BME280;52365;47.464;18.976;2023-04-09T00:07:47;100442.75;;;6.27;75.38
65666;BME280;52365;47.464;18.976;2023-04-09T00:08:24;100442.97;;;6.13;75.42
65666;BME280;52365;47.464;18.976;2023-04-09T00:09:00;100441.75;;;6.18;75.78
65666;BME280;52365;47.464;18.976;2023-04-09T00:09:36;100445.31;;;6.35;75.44
65666;BME280;52365;47.464;18.976;2023-04-09T00:10:12;100436.13;;;6.36;75.18
65666;BME280;52365;47.464;18.976;2023-04-09T00:10:51;100438.56;;;6.26;75.15
65666;BME280;52365;47.464;18.976;2023-04-09T00:11:28;100436.59;;;6.30;75.22
65666;BME280;52365;47.464;18.976;2023-04-09T00:12:04;100437.41;;;6.51;74.84
65666;BME280;52365;47.464;18.976;2023-04-09T00:12:40;100441.47;;;6.36;74.89
65666;BME280;52365;47.464;18.976;2023-04-09T00:13:16;100445.78;;;6.29;75.05
65666;BME280;52365;47.464;18.976;2023-04-09T00:13:52;100438.78;;;6.36;75.07
65666;BME280;52365;47.464;18.976;2023-04-09T00:14:29;100446.13;;;6.31;75.16
65666;BME280;52365;47.464;18.976;2023-04-09T00:15:05;100438.94;;;6.28;75.24
65666;BME280;52365;47.464;18.976;2023-04-09T00:15:41;100438.13;;;6.04;75.78
65666;BME280;52365;47.464;18.976;2023-04-09T00:16:17;100440.59;;;5.92;76.48
65666;BME280;52365;47.464;18.976;2023-04-09T00:16:53;100440.78;;;5.77;77.10
65666;BME280;52365;47.464;18.976;2023-04-09T00:17:30;100441.16;;;5.79;77.55
65666;BME280;52365;47.464;18.976;2023-04-09T00:18:06;100441.34;;;5.92;77.45
65666;BME280;52365;47.464;18.976;2023-04-09T00:18:42;100435.75;;;6.10;77.12
65666;BME280;52365;47.464;18.976;2023-04-09T00:19:18;100439.69;;;6.29;76.53
65666;BME280;52365;47.464;18.976;2023-04-09T00:19:54;100435.06;;;6.29;76.02
65666;BME280;52365;47.464;18.976;2023-04-09T00:20:30;100440.25;;;6.40;75.69
65666;BME280;52365;47.464;18.976;2023-04-09T00:21:07;100431.22;;;6.54;75.19
65666;BME280;52365;47.464;18.976;2023-04-09T00:21:43;100442.72;;;6.54;74.92
65666;BME280;52365;47.464;18.976;2023-04-09T00:22:19;100441.88;;;6.57;74.69
65666;BME280;52365;47.464;18.976;2023-04-09T00:22:55;100444.56;;;6.57;74.54
65666;BME280;52365;47.464;18.976;2023-04-09T00:23:31;100437.41;;;6.51;74.57
65666;BME280;52365;47.464;18.976;2023-04-09T00:24:07;100439.38;;;6.47;74.68
65666;BME280;52365;47.464;18.976;2023-04-09T00:24:43;100437.00;;;6.52;74.69
65666;BME280;52365;47.464;18.976;2023-04-09T00:25:19;100437.97;;;6.62;74.46
65666;BME280;52365;47.464;18.976;2023-04-09T00:25:55;100427.03;;;6.53;74.46
65666;BME280;52365;47.464;18.976;2023-04-09T00:26:31;100435.06;;;6.53;74.51
65666;BME280;52365;47.464;18.976;2023-04-09T00:27:07;100431.00;;;6.45;74.58
65666;BME280;52365;47.464;18.976;2023-04-09T00:27:43;100437.00;;;6.29;74.87
65666;BME280;52365;47.464;18.976;2023-04-09T00:28:20;100432.22;;;6.17;75.36
65666;BME280;52365;47.464;18.976;2023-04-09T00:28:56;100435.31;;;6.15;75.82
65666;BME280;52365;47.464;18.976;2023-04-09T00:29:32;100432.72;;;6.08;76.20
65666;BME280;52365;47.464;18.976;2023-04-09T00:30:08;100439.44;;;6.20;76.19
65666;BME280;52365;47.464;18.976;2023-04-09T00:30:44;100432.56;;;6.19;76.15
65666;BME280;52365;47.464;18.976;2023-04-09T00:31:20;100440.00;;;6.31;75.98
65666;BME280;52365;47.464;18.976;2023-04-09T00:31:56;100432.34;;;6.33;75.78
65666;BME280;52365;47.464;18.976;2023-04-09T00:32:32;100438.78;;;6.36;75.65
65666;BME280;52365;47.464;18.976;2023-04-09T00:33:09;100435.81;;;6.30;75.63
65666;BME280;52365;47.464;18.976;2023-04-09T00:33:45;100429.97;;;6.39;75.59
65666;BME280;52365;47.464;18.976;2023-04-09T00:34:21;100440.91;;;6.48;75.42
65666;BME280;52365;47.464;18.976;2023-04-09T00:34:57;100434.16;;;6.63;75.00
65666;BME280;52365;47.464;18.976;2023-04-09T00:35:33;100437.22;;;6.62;74.77
65666;BME280;52365;47.464;18.976;2023-04-09T00:36:09;100435.94;;;6.70;74.56
65666;BME280;52365;47.464;18.976;2023-04-09T00:36:45;100436.28;;;6.72;74.29
65666;BME280;52365;47.464;18.976;2023-04-09T00:37:21;100441.41;;;6.63;74.28
65666;BME280;52365;47.464;18.976;2023-04-09T00:37:57;100433.44;;;6.59;74.36
65666;BME280;52365;47.464;18.976;2023-04-09T00:38:33;100436.50;;;6.57;74.47
65666;BME280;52365;47.464;18.976;2023-04-09T00:39:09;100432.06;;;6.51;74.55
65666;BME280;52365;47.464;18.976;2023-04-09T00:39:45;100430.94;;;6.48;74.70
65666;BME280;52365;47.464;18.976;2023-04-09T00:40:22;100433.28;;;6.46;74.77
65666;BME280;52365;47.464;18.976;2023-04-09T00:40:58;100429.91;;;6.42;74.89
65666;BME280;52365;47.464;18.976;2023-04-09T00:41:34;100434.72;;;6.51;74.95
65666;BME280;52365;47.464;18.976;2023-04-09T00:42:10;100431.47;;;6.63;74.71
65666;BME280;52365;47.464;18.976;2023-04-09T00:42:46;100429.47;;;6.67;74.48
65666;BME280;52365;47.464;18.976;2023-04-09T00:43:22;100430.03;;;6.78;74.12
65666;BME280;52365;47.464;18.976;2023-04-09T00:43:58;100430.28;;;6.64;74.00
65666;BME280;52365;47.464;18.976;2023-04-09T00:44:35;100429.59;;;6.60;74.18
65666;BME280;52365;47.464;18.976;2023-04-09T00:45:11;100431.91;;;6.58;74.32
65666;BME280;52365;47.464;18.976;2023-04-09T00:45:47;100425.16;;;6.73;74.14
65666;BME280;52365;47.464;18.976;2023-04-09T00:46:23;100429.66;;;6.56;74.11
65666;BME280;52365;47.464;18.976;2023-04-09T00:46:59;100432.53;;;6.46;74.33
65666;BME280;52365;47.464;18.976;2023-04-09T00:47:35;100427.63;;;6.41;74.62
65666;BME280;52365;47.464;18.976;2023-04-09T00:48:12;100434.50;;;6.42;74.81
65666;BME280;52365;47.464;18.976;2023-04-09T00:48:48;100435.19;;;6.46;74.98
65666;BME280;52365;47.464;18.976;2023-04-09T00:49:25;100432.28;;;6.37;75.23
65666;BME280;52365;47.464;18.976;2023-04-09T00:50:01;100431.69;;;6.49;75.25
65666;BME280;52365;47.464;18.976;2023-04-09T00:50:38;100436.56;;;6.54;75.06
65666;BME280;52365;47.464;18.976;2023-04-09T00:51:14;100437.53;;;6.67;74.76
65666;BME280;52365;47.464;18.976;2023-04-09T00:51:51;100430.72;;;6.82;74.35
65666;BME280;52365;47.464;18.976;2023-04-09T00:52:28;100434.19;;;7.03;73.65
65666;BME280;52365;47.464;18.976;2023-04-09T00:53:07;100431.03;;;7.08;73.04
65666;BME280;52365;47.464;18.976;2023-04-09T00:53:44;100432.03;;;7.14;72.55
65666;BME280;52365;47.464;18.976;2023-04-09T00:54:21;100428.28;;;7.12;72.29
65666;BME280;52365;47.464;18.976;2023-04-09T00:55:03;100435.97;;;6.90;72.41
65666;BME280;52365;47.464;18.976;2023-04-09T00:55:40;100434.75;;;6.71;72.96
65666;BME280;52365;47.464;18.976;2023-04-09T00:56:17;100434.06;;;6.67;73.40
65666;BME280;52365;47.464;18.976;2023-04-09T00:56:54;100429.22;;;6.58;73.76
65666;BME280;52365;47.464;18.976;2023-04-09T00:57:31;100425.19;;;6.50;74.08
65666;BME280;52365;47.464;18.976;2023-04-09T00:58:07;100439.66;;;6.52;74.32
65666;BME280;52365;47.464;18.976;2023-04-09T00:58:43;100428.16;;;6.55;74.43
65666;BME280;52365;47.464;18.976;2023-04-09T00:59:20;100427.09;;;6.49;74.63
65666;BME280;52365;47.464;18.976;2023-04-09T00:59:56;100424.00;;;6.51;74.69
65666;BME280;52365;47.464;18.976;2023-04-09T01:00:32;100434.31;;;6.52;74.72
65666;BME280;52365;47.464;18.976;2023-04-09T01:01:08;100429.38;;;6.51;74.73
65666;BME280;52365;47.464;18.976;2023-04-09T01:01:45;100430.53;;;6.50;74.80
65666;BME280;52365;47.464;18.976;2023-04-09T01:02:21;100430.41;;;6.57;74.82
65666;BME280;52365;47.464;18.976;2023-04-09T01:02:58;100424.47;;;6.69;74.59
65666;BME280;52365;47.464;18.976;2023-04-09T01:03:35;100419.69;;;6.57;74.52
65666;BME280;52365;47.464;18.976;2023-04-09T01:04:12;100422.03;;;6.55;74.78
65666;BME280;52365;47.464;18.976;2023-04-09T01:04:48;100429.72;;;6.53;74.79
65666;BME280;52365;47.464;18.976;2023-04-09T01:05:32;100431.91;;;6.58;74.90
65666;BME280;52365;47.464;18.976;2023-04-09T01:06:27;100429.12;;;6.65;74.79
65666;BME280;52365;47.464;18.976;2023-04-09T01:09:32;100423.44;;;6.83;74.02
65666;BME280;52365;47.464;18.976;2023-04-09T01:12:35;100430.03;;;6.78;73.99
65666;BME280;52365;47.464;18.976;2023-04-09T01:13:53;100428.69;;;6.67;74.10
65666;BME280;52365;47.464;18.976;2023-04-09T01:14:53;100428.91;;;6.56;74.47
65666;BME280;52365;47.464;18.976;2023-04-09T01:15:33;100428.38;;;6.85;74.34
65666;BME280;52365;47.464;18.976;2023-04-09T01:16:13;100425.38;;;7.02;73.32
65666;BME280;52365;47.464;18.976;2023-04-09T01:17:04;100427.84;;;7.13;72.91
65666;BME280;52365;47.464;18.976;2023-04-09T01:18:47;100423.25;;;6.94;72.25
65666;BME280;52365;47.464;18.976;2023-04-09T01:20:42;100429.00;;;6.49;73.41
65666;BME280;52365;47.464;18.976;2023-04-09T01:21:25;100419.47;;;6.24;74.57
65666;BME280;52365;47.464;18.976;2023-04-09T01:22:08;100423.91;;;6.35;75.03
65666;BME280;52365;47.464;18.976;2023-04-09T01:24:45;100428.41;;;6.41;74.78
65666;BME280;52365;47.464;18.976;2023-04-09T01:25:50;100427.63;;;6.41;75.34
65666;BME280;52365;47.464;18.976;2023-04-09T01:27:10;100426.78;;;5.97;76.49
65666;BME280;52365;47.464;18.976;2023-04-09T01:28:48;100424.69;;;6.08;76.95
65666;BME280;52365;47.464;18.976;2023-04-09T01:29:30;100427.84;;;6.03;77.10
65666;BME280;52365;47.464;18.976;2023-04-09T01:30:08;100423.19;;;6.30;76.65
65666;BME280;52365;47.464;18.976;2023-04-09T01:30:48;100428.59;;;6.27;76.29
65666;BME280;52365;47.464;18.976;2023-04-09T01:31:30;100427.97;;;6.43;75.96
65666;BME280;52365;47.464;18.976;2023-04-09T01:32:07;100428.16;;;6.75;75.26
65666;BME280;52365;47.464;18.976;2023-04-09T01:32:44;100431.75;;;6.89;73.92
65666;BME280;52365;47.464;18.976;2023-04-09T01:33:20;100422.78;;;6.99;73.58
65666;BME280;52365;47.464;18.976;2023-04-09T01:33:59;100419.53;;;7.07;73.13
65666;BME280;52365;47.464;18.976;2023-04-09T01:34:36;100424.56;;;7.05;72.19
65666;BME280;52365;47.464;18.976;2023-04-09T01:35:13;100425.81;;;6.57;72.85
65666;BME280;52365;47.464;18.976;2023-04-09T01:35:50;100427.47;;;6.28;73.96
65666;BME280;52365;47.464;18.976;2023-04-09T01:36:29;100424.66;;;5.85;75.81
65666;BME280;52365;47.464;18.976;2023-04-09T01:37:07;100432.91;;;6.21;75.91
65666;BME280;52365;47.464;18.976;2023-04-09T01:37:44;100430.88;;;6.52;75.28
65666;BME280;52365;47.464;18.976;2023-04-09T01:38:21;100432.75;;;6.55;74.74
65666;BME280;52365;47.464;18.976;2023-04-09T01:39:01;100431.53;;;6.60;74.46
65666;BME280;52365;47.464;18.976;2023-04-09T01:39:38;100431.00;;;6.88;73.46
65666;BME280;52365;47.464;18.976;2023-04-09T01:40:14;100435.94;;;6.46;73.46
65666;BME280;52365;47.464;18.976;2023-04-09T01:40:51;100433.25;;;6.23;74.13
65666;BME280;52365;47.464;18.976;2023-04-09T01:41:31;100431.00;;;6.21;74.95
65666;BME280;52365;47.464;18.976;2023-04-09T01:42:09;100424.41;;;6.26;74.73
65666;BME280;52365;47.464;18.976;2023-04-09T01:42:47;100438.31;;;6.64;74.41
65666;BME280;52365;47.464;18.976;2023-04-09T01:43:25;100439.34;;;6.70;73.62
65666;BME280;52365;47.464;18.976;2023-04-09T01:44:03;100435.59;;;6.88;73.18
65666;BME280;52365;47.464;18.976;2023-04-09T01:44:41;100434.63;;;6.78;72.71
65666;BME280;52365;47.464;18.976;2023-04-09T01:45:20;100435.88;;;6.93;72.56
65666;BME280;52365;47.464;18.976;2023-04-09T01:45:56;100435.66;;;6.64;72.35
65666;BME280;52365;47.464;18.976;2023-04-09T01:46:35;100437.59;;;6.84;72.67
65666;BME280;52365;47.464;18.976;2023-04-09T01:47:12;100431.69;;;6.92;72.18
65666;BME280;52365;47.464;18.976;2023-04-09T01:47:49;100432.16;;;6.87;72.27
65666;BME280;52365;47.464;18.976;2023-04-09T01:48:26;100433.75;;;6.85;71.83
65666;BME280;52365;47.464;18.976;2023-04-09T01:49:02;100425.47;;;6.55;72.25
65666;BME280;52365;47.464;18.976;2023-04-09T01:49:40;100438.91;;;6.52;72.97
65666;BME280;52365;47.464;18.976;2023-04-09T01:50:16;100434.78;;;6.47;73.21
65666;BME280;52365;47.464;18.976;2023-04-09T01:50:52;100431.66;;;6.29;73.48
65666;BME280;52365;47.464;18.976;2023-04-09T01:51:29;100430.91;;;6.28;73.92
65666;BME280;52365;47.464;18.976;2023-04-09T01:52:06;100428.31;;;6.21;74.12
65666;BME280;52365;47.464;18.976;2023-04-09T01:52:42;100434.59;;;6.11;74.32
65666;BME280;52365;47.464;18.976;2023-04-09T01:53:20;100426.38;;;5.98;74.55
65666;BME280;52365;47.464;18.976;2023-04-09T01:53:56;100428.47;;;5.84;75.27
65666;BME280;52365;47.464;18.976;2023-04-09T01:54:32;100427.91;;;5.69;75.97
65666;BME280;52365;47.464;18.976;2023-04-09T01:55:08;100428.06;;;5.58;76.71
65666;BME280;52365;47.464;18.976;2023-04-09T01:55:44;100426.00;;;5.69;76.77
65666;BME280;52365;47.464;18.976;2023-04-09T01:56:20;100427.75;;;5.52;76.99
65666;BME280;52365;47.464;18.976;2023-04-09T01:56:57;100431.09;;;5.60;76.99
65666;BME280;52365;47.464;18.976;2023-04-09T01:57:33;100431.13;;;5.56;76.95
65666;BME280;52365;47.464;18.976;2023-04-09T01:58:09;100432.97;;;5.63;76.92
65666;BME280;52365;47.464;18.976;2023-04-09T01:58:45;100427.97;;;5.65;76.64
65666;BME280;52365;47.464;18.976;2023-04-09T01:59:21;100418.09;;;5.62;76.53
65666;BME280;52365;47.464;18.976;2023-04-09T01:59:57;100439.28;;;5.76;76.55
65666;BME280;52365;47.464;18.976;2023-04-09T02:00:45;100433.84;;;5.53;76.75
65666;BME280;52365;47.464;18.976;2023-04-09T02:01:27;100428.91;;;5.51;76.92
65666;BME280;52365;47.464;18.976;2023-04-09T02:02:12;100434.34;;;5.44;76.95
65666;BME280;52365;47.464;18.976;2023-04-09T02:03:24;100428.41;;;5.60;76.96
65666;BME280;52365;47.464;18.976;2023-04-09T02:04:03;100431.62;;;5.75;76.51
65666;BME280;52365;47.464;18.976;2023-04-09T02:04:43;100420.50;;;5.80;76.03
65666;BME280;52365;47.464;18.976;2023-04-09T02:05:24;100429.38;;;5.73;75.89
65666;BME280;52365;47.464;18.976;2023-04-09T02:06:15;100434.81;;;5.66;75.87
65666;BME280;52365;47.464;18.976;2023-04-09T02:07:41;100424.19;;;5.63;76.51
65666;BME280;52365;47.464;18.976;2023-04-09T02:08:20;100430.13;;;5.74;76.33
65666;BME280;52365;47.464;18.976;2023-04-09T02:08:59;100424.69;;;5.81;76.05
65666;BME280;52365;47.464;18.976;2023-04-09T02:09:38;100426.63;;;5.80;75.85
65666;BME280;52365;47.464;18.976;2023-04-09T02:10:17;100427.88;;;5.72;75.76
65666;BME280;52365;47.464;18.976;2023-04-09T02:10:58;100425.66;;;5.67;75.95
65666;BME280;52365;47.464;18.976;2023-04-09T02:11:40;100425.59;;;5.71;76.01
65666;BME280;52365;47.464;18.976;2023-04-09T02:12:17;100426.78;;;5.66;75.96
65666;BME280;52365;47.464;18.976;2023-04-09T02:12:54;100432.25;;;5.59;75.97
65666;BME280;52365;47.464;18.976;2023-04-09T02:13:31;100426.87;;;5.63;76.15
65666;BME280;52365;47.464;18.976;2023-04-09T02:14:10;100429.41;;;5.70;76.14
65666;BME280;52365;47.464;18.976;2023-04-09T02:14:50;100426.66;;;5.77;75.99
65666;BME280;52365;47.464;18.976;2023-04-09T02:15:27;100431.59;;;5.78;75.89
65666;BME280;52365;47.464;18.976;2023-04-09T02:16:05;100426.56;;;5.84;75.73
65666;BME280;52365;47.464;18.976;2023-04-09T02:16:42;100424.81;;;5.70;75.62
65666;BME280;52365;47.464;18.976;2023-04-09T02:17:18;100431.59;;;5.51;75.79
65666;BME280;52365;47.464;18.976;2023-04-09T02:17:54;100420.37;;;5.60;76.08
65666;BME280;52365;47.464;18.976;2023-04-09T02:18:30;100419.63;;;5.60;76.08
65666;BME280;52365;47.464;18.976;2023-04-09T02:19:07;100423.94;;;5.53;76.12
65666;BME280;52365;47.464;18.976;2023-04-09T02:19:45;100428.50;;;5.53;76.22
65666;BME280;52365;47.464;18.976;2023-04-09T02:20:21;100426.66;;;5.50;76.23
65666;BME280;52365;47.464;18.976;2023-04-09T02:20:58;100428.22;;;5.44;76.40
65666;BME280;52365;47.464;18.976;2023-04-09T02:21:34;100418.59;;;5.53;76.52
65666;BME280;52365;47.464;18.976;2023-04-09T02:22:11;100422.44;;;5.79;76.19
65666;BME280;52365;47.464;18.976;2023-04-09T02:22:47;100422.19;;;5.97;75.54
65666;BME280;52365;47.464;18.976;2023-04-09T02:23:24;100426.87;;;5.90;75.24
65666;BME280;52365;47.464;18.976;2023-04-09T02:24:00;100424.91;;;5.67;75.36
65666;BME280;52365;47.464;18.976;2023-04-09T02:24:37;100423.56;;;5.78;75.53
65666;BME280;52365;47.464;18.976;2023-04-09T02:25:13;100422.44;;;5.79;75.53
65666;BME280;52365;47.464;18.976;2023-04-09T02:25:51;100420.81;;;5.86;75.37
65666;BME280;52365;47.464;18.976;2023-04-09T02:26:28;100420.59;;;5.73;75.40
65666;BME280;52365;47.464;18.976;2023-04-09T02:27:04;100419.59;;;5.63;75.59
65666;BME280;52365;47.464;18.976;2023-04-09T02:27:41;100426.94;;;5.55;76.05
65666;BME280;52365;47.464;18.976;2023-04-09T02:28:17;100428.66;;;5.42;76.54
65666;BME280;52365;47.464;18.976;2023-04-09T02:28:53;100422.97;;;5.40;76.86
65666;BME280;52365;47.464;18.976;2023-04-09T02:29:29;100429.66;;;5.52;76.81
65666;BME280;52365;47.464;18.976;2023-04-09T02:30:06;100424.28;;;5.55;76.66
65666;BME280;52365;47.464;18.976;2023-04-09T02:30:42;100414.28;;;5.60;76.52
65666;BME280;52365;47.464;18.976;2023-04-09T02:31:18;100420.88;;;5.51;76.35
65666;BME280;52365;47.464;18.976;2023-04-09T02:31:54;100421.56;;;5.28;76.82
65666;BME280;52365;47.464;18.976;2023-04-09T02:32:30;100423.53;;;5.24;77.16
65666;BME280;52365;47.464;18.976;2023-04-09T02:33:06;100423.53;;;5.24;77.34
65666;BME280;52365;47.464;18.976;2023-04-09T02:33:42;100426.91;;;5.28;77.57
65666;BME280;52365;47.464;18.976;2023-04-09T02:34:19;100419.47;;;5.43;77.33
65666;BME280;52365;47.464;18.976;2023-04-09T02:34:55;100429.06;;;5.41;77.10
65666;BME280;52365;47.464;18.976;2023-04-09T02:35:31;100420.84;;;5.24;77.25
65666;BME280;52365;47.464;18.976;2023-04-09T02:36:11;100427.13;;;5.41;77.16
65666;BME280;52365;47.464;18.976;2023-04-09T02:36:47;100416.91;;;5.63;76.76
65666;BME280;52365;47.464;18.976;2023-04-09T02:37:23;100425.81;;;6.11;75.55
65666;BME280;52365;47.464;18.976;2023-04-09T02:38:00;100429.53;;;6.17;74.56
65666;BME280;52365;47.464;18.976;2023-04-09T02:38:36;100422.06;;;6.04;74.10
65666;BME280;52365;47.464;18.976;2023-04-09T02:39:12;100422.03;;;6.08;73.90
65666;BME280;52365;47.464;18.976;2023-04-09T02:39:49;100417.84;;;6.07;73.67
65666;BME280;52365;47.464;18.976;2023-04-09T02:40:25;100429.00;;;6.02;73.63
65666;BME280;52365;47.464;18.976;2023-04-09T02:41:01;100418.22;;;5.78;73.85
65666;BME280;52365;47.464;18.976;2023-04-09T02:41:37;100416.56;;;5.61;74.31
65666;BME280;52365;47.464;18.976;2023-04-09T02:42:13;100423.22;;;5.49;74.80
65666;BME280;52365;47.464;18.976;2023-04-09T02:42:52;100428.31;;;5.40;75.30
65666;BME280;52365;47.464;18.976;2023-04-09T02:43:29;100422.66;;;5.62;75.51
65666;BME280;52365;47.464;18.976;2023-04-09T02:44:05;100426.44;;;5.64;75.21
65666;BME280;52365;47.464;18.976;2023-04-09T02:44:41;100420.34;;;5.33;75.48
65666;BME280;52365;47.464;18.976;2023-04-09T02:45:19;100429.00;;;5.14;76.32
65666;BME280;52365;47.464;18.976;2023-04-09T02:45:55;100434.03;;;5.04;76.92
65666;BME280;52365;47.464;18.976;2023-04-09T02:46:31;100421.09;;;5.03;77.31
65666;BME280;52365;47.464;18.976;2023-04-09T02:47:07;100435.28;;;4.96;77.63
65666;BME280;52365;47.464;18.976;2023-04-09T02:47:43;100431.84;;;4.96;77.74
65666;BME280;52365;47.464;18.976;2023-04-09T02:48:19;100427.13;;;5.11;77.56
65666;BME280;52365;47.464;18.976;2023-04-09T02:48:55;100427.44;;;5.16;77.30
65666;BME280;52365;47.464;18.976;2023-04-09T02:49:31;100422.34;;;5.25;77.13
65666;BME280;52365;47.464;18.976;2023-04-09T02:50:07;100426.91;;;5.28;76.84
65666;BME280;52365;47.464;18.976;2023-04-09T02:50:43;100418.41;;;5.37;76.56
65666;BME280;52365;47.464;18.976;2023-04-09T02:51:19;100427.97;;;5.35;76.39
65666;BME280;52365;47.464;18.976;2023-04-09T02:51:56;100429.87;;;5.34;76.23
65666;BME280;52365;47.464;18.976;2023-04-09T02:52:32;100424.69;;;5.23;76.18
65666;BME280;52365;47.464;18.976;2023-04-09T02:53:08;100429.66;;;5.21;76.25
65666;BME280;52365;47.464;18.976;2023-04-09T02:53:44;100427.13;;;5.11;76.28
65666;BME280;52365;47.464;18.976;2023-04-09T02:54:20;100422.09;;;5.16;76.57
65666;BME280;52365;47.464;18.976;2023-04-09T02:54:56;100425.75;;;5.29;76.46
65666;BME280;52365;47.464;18.976;2023-04-09T02:55:32;100421.78;;;5.41;76.14
65666;BME280;52365;47.464;18.976;2023-04-09T02:56:08;100421.62;;;5.21;76.02
65666;BME280;52365;47.464;18.976;2023-04-09T02:56:44;100417.25;;;5.04;76.26
65666;BME280;52365;47.464;18.976;2023-04-09T02:57:20;100428.06;;;4.93;76.70
65666;BME280;52365;47.464;18.976;2023-04-09T02:57:56;100426.91;;;4.94;76.86
65666;BME280;52365;47.464;18.976;2023-04-09T02:58:32;100412.75;;;4.97;77.11
65666;BME280;52365;47.464;18.976;2023-04-09T02:59:08;100425.69;;;5.02;77.04
65666;BME280;52365;47.464;18.976;2023-04-09T02:59:45;100421.13;;;4.99;76.90
65666;BME280;52365;47.464;18.976;2023-04-09T03:00:21;100425.38;;;4.97;76.88
65666;BME280;52365;47.464;18.976;2023-04-09T03:00:57;100425.75;;;4.95;76.83
65666;BME280;52365;47.464;18.976;2023-04-09T03:01:33;100422.41;;;4.88;76.87
65666;BME280;52365;47.464;18.976;2023-04-09T03:02:09;100425.59;;;4.75;77.19
65666;BME280;52365;47.464;18.976;2023-04-09T03:02:45;100424.47;;;4.69;77.64
65666;BME280;52365;47.464;18.976;2023-04-09T03:03:22;100424.13;;;4.67;77.95
65666;BME280;52365;47.464;18.976;2023-04-09T03:03:59;100421.47;;;4.67;77.99
65666;BME280;52365;47.464;18.976;2023-04-09T03:04:35;100425.22;;;4.73;77.93
65666;BME280;52365;47.464;18.976;2023-04-09T03:05:11;100424.06;;;4.74;77.79
65666;BME280;52365;47.464;18.976;2023-04-09T03:05:47;100424.91;;;4.64;78.08
65666;BME280;52365;47.464;18.976;2023-04-09T03:06:23;100427.88;;;4.73;78.04
65666;BME280;52365;47.464;18.976;2023-04-09T03:06:59;100423.97;;;4.82;77.79
65666;BME280;52365;47.464;18.976;2023-04-09T03:07:35;100421.94;;;4.96;77.38
65666;BME280;52365;47.464;18.976;2023-04-09T03:08:11;100426.38;;;4.72;77.40
65666;BME280;52365;47.464;18.976;2023-04-09T03:08:47;100424.91;;;4.64;77.59
65666;BME280;52365;47.464;18.976;2023-04-09T03:09:23;100423.13;;;4.50;77.88
65666;BME280;52365;47.464;18.976;2023-04-09T03:09:59;100420.41;;;4.58;78.06
65666;BME280;52365;47.464;18.976;2023-04-09T03:10:36;100428.31;;;4.68;77.88
65666;BME280;52365;47.464;18.976;2023-04-09T03:11:12;100426.13;;;4.56;77.84
65666;BME280;52365;47.464;18.976;2023-04-09T03:11:48;100420.16;;;4.45;77.88
65666;BME280;52365;47.464;18.976;2023-04-09T03:12:24;100423.28;;;4.33;78.11
65666;BME280;52365;47.464;18.976;2023-04-09T03:13:00;100419.84;;;4.36;78.49
65666;BME280;52365;47.464;18.976;2023-04-09T03:13:36;100420.31;;;4.23;78.80
65666;BME280;52365;47.464;18.976;2023-04-09T03:14:12;100421.72;;;4.39;78.77
65666;BME280;52365;47.464;18.976;2023-04-09T03:14:48;100428.88;;;4.49;78.44
65666;BME280;52365;47.464;18.976;2023-04-09T03:15:24;100423.72;;;4.69;77.96
65666;BME280;52365;47.464;18.976;2023-04-09T03:16:00;100422.69;;;4.59;77.74
65666;BME280;52365;47.464;18.976;2023-04-09T03:16:36;100426.75;;;4.74;77.45
65666;BME280;52365;47.464;18.976;2023-04-09T03:17:12;100429.31;;;4.82;76.92
65666;BME280;52365;47.464;18.976;2023-04-09T03:17:48;100412.78;;;4.56;76.87
65666;BME280;52365;47.464;18.976;2023-04-09T03:18:25;100426.06;;;4.67;76.88
65666;BME280;52365;47.464;18.976;2023-04-09T03:19:01;100418.22;;;4.45;77.00
65666;BME280;52365;47.464;18.976;2023-04-09T03:19:37;100430.19;;;4.71;76.87
65666;BME280;52365;47.464;18.976;2023-04-09T03:20:13;100422.34;;;4.57;76.96
65666;BME280;52365;47.464;18.976;2023-04-09T03:20:49;100417.03;;;4.50;77.04
65666;BME280;52365;47.464;18.976;2023-04-09T03:21:25;100423.97;;;4.44;77.36
65666;BME280;52365;47.464;18.976;2023-04-09T03:22:02;100421.06;;;4.27;77.67
65666;BME280;52365;47.464;18.976;2023-04-09T03:22:38;100418.72;;;4.29;77.95
65666;BME280;52365;47.464;18.976;2023-04-09T03:23:14;100418.25;;;4.42;77.77
65666;BME280;52365;47.464;18.976;2023-04-09T03:23:50;100417.91;;;4.40;77.61
65666;BME280;52365;47.464;18.976;2023-04-09T03:24:27;100429.91;;;4.62;77.30
65666;BME280;52365;47.464;18.976;2023-04-09T03:25:03;100418.25;;;4.83;76.68
65666;BME280;52365;47.464;18.976;2023-04-09T03:25:39;100418.00;;;4.70;76.24
65666;BME280;52365;47.464;18.976;2023-04-09T03:26:15;100420.88;;;4.49;76.31
65666;BME280;52365;47.464;18.976;2023-04-09T03:26:51;100421.62;;;4.49;76.56
65666;BME280;52365;47.464;18.976;2023-04-09T03:27:27;100418.62;;;4.44;76.61